Time;durP1;ratioP1;P1;durP2;ratioP2;P2;SDS_P1;SDS_P2;PMS_P1;PMS_P2;Temp;Humidity;BMP_temperature;BMP_pressure;BME280_temperature;BME280_humidity;BME280_pressure;Samples;Min_cycle;Max_cycle;Signal;HPM_P1;HPM_P2
2021/10/30 00:01:49;;;;;;;23.98;14.18;;;10.10;99.90;;;;;;4129837;28;20046;-75
2021/10/30 00:03:50;;;;;;;21.92;15.88;;;10.00;99.90;;;;;;4127831;28;20538;-75
2021/10/30 00:05:51;;;;;;;20.25;13.93;;;9.90;99.90;;;;;;4131435;28;20093;-75
2021/10/30 00:07:52;;;;;;;18.05;13.85;;;9.90;99.90;;;;;;4130025;28;20033;-76
2021/10/30 00:09:53;;;;;;;19.55;14.50;;;9.80;99.90;;;;;;4132393;28;20125;-75
2021/10/30 00:11:53;;;;;;;22.15;15.07;;;9.70;99.90;;;;;;4132418;28;20030;-75
2021/10/30 00:13:54;;;;;;;16.98;13.40;;;9.70;99.90;;;;;;4125494;28;20061;-75
2021/10/30 00:15:57;;;;;;;23.15;15.75;;;9.60;99.90;;;;;;4130651;28;20090;-75
2021/10/30 00:17:57;;;;;;;19.73;14.82;;;9.50;99.90;;;;;;4129612;28;20030;-75
2021/10/30 00:19:58;;;;;;;24.05;14.82;;;9.50;99.90;;;;;;4130170;28;20026;-76
2021/10/30 00:21:58;;;;;;;25.27;14.98;;;9.30;99.90;;;;;;4130625;28;20031;-75
2021/10/30 00:24:00;;;;;;;22.33;14.65;;;9.30;99.90;;;;;;4131452;28;20030;-75
2021/10/30 00:26:01;;;;;;;22.17;14.88;;;9.30;99.90;;;;;;4129267;28;20514;-75
2021/10/30 00:28:02;;;;;;;22.73;15.65;;;9.30;99.90;;;;;;4132135;28;20033;-75
2021/10/30 00:30:04;;;;;;;23.08;14.80;;;9.20;99.90;;;;;;4124636;28;20019;-76
2021/10/30 00:32:06;;;;;;;26.55;15.02;;;9.20;99.90;;;;;;4127582;28;20422;-75
2021/10/30 00:34:06;;;;;;;20.27;15.13;;;9.30;99.90;;;;;;4139357;28;20077;-75
2021/10/30 00:36:08;;;;;;;24.15;16.35;;;9.30;99.90;;;;;;4128371;28;20038;-75
2021/10/30 00:38:09;;;;;;;21.48;15.63;;;9.30;99.90;;;;;;4129860;28;20054;-75
2021/10/30 00:40:11;;;;;;;26.52;16.95;;;9.30;99.90;;;;;;4130122;28;20490;-75
2021/10/30 00:42:12;;;;;;;26.58;16.63;;;9.30;99.90;;;;;;4127460;28;20772;-75
2021/10/30 00:44:15;;;;;;;26.02;17.38;;;9.30;99.90;;;;;;4125181;28;20042;-75
2021/10/30 00:46:16;;;;;;;26.63;17.65;;;9.30;99.90;;;;;;4120733;28;20080;-75
2021/10/30 00:48:18;;;;;;;26.35;17.02;;;9.30;99.90;;;;;;4143117;28;20464;-75
2021/10/30 00:50:18;;;;;;;24.75;16.95;;;9.20;99.90;;;;;;4126895;28;20525;-74
2021/10/30 00:52:21;;;;;;;25.77;17.90;;;9.20;99.90;;;;;;4129224;28;20026;-74
2021/10/30 00:54:23;;;;;;;29.50;18.17;;;9.20;99.90;;;;;;4120436;28;20050;-74
2021/10/30 00:56:25;;;;;;;24.38;17.27;;;9.20;99.90;;;;;;4128439;28;20121;-74
2021/10/30 00:58:28;;;;;;;28.95;19.30;;;9.30;99.90;;;;;;4126673;28;20197;-74
2021/10/30 01:00:30;;;;;;;31.48;20.23;;;9.40;99.90;;;;;;4127570;28;20037;-74
2021/10/30 01:02:31;;;;;;;30.35;20.50;;;9.60;99.90;;;;;;4130709;28;20122;-74
2021/10/30 01:04:31;;;;;;;34.10;22.60;;;9.70;99.90;;;;;;4124981;28;20030;-74
2021/10/30 01:06:33;;;;;;;31.70;21.65;;;9.80;99.90;;;;;;4130306;28;20609;-74
2021/10/30 01:08:34;;;;;;;37.22;22.83;;;9.90;99.90;;;;;;4128798;28;20038;-75
2021/10/30 01:10:35;;;;;;;41.75;21.60;;;10.00;99.90;;;;;;4129636;28;20026;-75
2021/10/30 01:12:36;;;;;;;34.38;21.70;;;10.10;99.90;;;;;;4130856;28;20037;-75
2021/10/30 01:14:38;;;;;;;33.40;21.25;;;10.10;99.90;;;;;;4128079;28;20101;-76
2021/10/30 01:16:39;;;;;;;37.35;22.73;;;10.20;99.90;;;;;;4131181;28;20034;-75
2021/10/30 01:18:41;;;;;;;35.70;22.38;;;10.10;99.90;;;;;;4129106;28;20068;-75
2021/10/30 01:20:42;;;;;;;35.90;21.20;;;10.10;99.90;;;;;;4142388;28;20084;-76
2021/10/30 01:22:42;;;;;;;32.53;22.13;;;10.10;99.90;;;;;;4127512;28;20049;-75
2021/10/30 01:24:43;;;;;;;33.97;20.52;;;9.90;99.90;;;;;;4130743;28;20418;-76
2021/10/30 01:26:43;;;;;;;31.42;21.50;;;9.80;99.90;;;;;;4129678;28;20034;-75
2021/10/30 01:28:44;;;;;;;35.35;20.48;;;9.70;99.90;;;;;;4130397;28;20427;-75
2021/10/30 01:30:45;;;;;;;32.97;20.17;;;9.60;99.90;;;;;;4123048;28;20031;-76
2021/10/30 01:32:53;;;;;;;32.30;20.90;;;9.50;99.90;;;;;;4122565;28;20409;-75
2021/10/30 01:34:53;;;;;;;38.35;20.52;;;9.30;99.90;;;;;;4129958;28;20038;-75
2021/10/30 01:36:55;;;;;;;34.97;22.70;;;9.20;99.90;;;;;;4129185;28;20096;-75
2021/10/30 01:38:55;;;;;;;39.25;21.98;;;9.10;99.90;;;;;;4121335;28;20047;-75
2021/10/30 01:40:56;;;;;;;32.38;21.70;;;9.10;99.90;;;;;;4138876;28;20033;-75
2021/10/30 01:43:00;;;;;;;37.15;22.83;;;9.10;99.90;;;;;;4129004;28;20382;-75
2021/10/30 01:45:01;;;;;;;40.55;23.42;;;9.10;99.90;;;;;;4126777;28;20027;-74
2021/10/30 01:47:02;;;;;;;37.65;23.45;;;9.10;99.90;;;;;;4119231;28;20118;-75
2021/10/30 01:49:03;;;;;;;37.35;22.23;;;9.00;99.90;;;;;;4142085;28;20056;-75
2021/10/30 01:51:05;;;;;;;38.53;23.08;;;8.90;99.90;;;;;;4129984;28;20042;-76
2021/10/30 01:53:07;;;;;;;40.60;23.33;;;8.80;99.90;;;;;;4126011;28;20031;-76
2021/10/30 01:55:09;;;;;;;43.45;23.83;;;8.80;99.90;;;;;;4116774;28;20039;-76
2021/10/30 01:57:10;;;;;;;36.03;22.42;;;8.80;99.90;;;;;;4125325;28;20438;-76
2021/10/30 01:59:11;;;;;;;36.42;21.67;;;8.80;99.90;;;;;;4123892;28;20046;-76
2021/10/30 02:01:12;;;;;;;41.50;23.98;;;8.70;99.90;;;;;;4127606;28;20421;-76
2021/10/30 02:03:13;;;;;;;43.05;25.58;;;8.60;99.90;;;;;;4128065;28;20027;-76
2021/10/30 02:05:13;;;;;;;43.72;25.90;;;8.70;99.90;;;;;;4130321;28;20042;-76
2021/10/30 02:07:14;;;;;;;45.80;25.23;;;8.70;99.90;;;;;;4130354;28;20034;-75
2021/10/30 02:09:14;;;;;;;47.72;25.80;;;8.60;99.90;;;;;;4129763;28;20035;-76
2021/10/30 02:11:15;;;;;;;52.42;26.73;;;8.60;99.90;;;;;;4129748;28;20498;-74
2021/10/30 02:13:16;;;;;;;47.63;27.88;;;8.70;99.90;;;;;;4130482;28;20422;-74
2021/10/30 02:15:17;;;;;;;49.95;26.73;;;8.70;99.90;;;;;;4128559;28;20124;-74
2021/10/30 02:17:17;;;;;;;51.38;30.52;;;8.70;99.90;;;;;;4126798;28;20058;-75
2021/10/30 02:19:18;;;;;;;51.85;29.92;;;8.80;99.90;;;;;;4127367;28;20053;-75
2021/10/30 02:21:19;;;;;;;59.42;31.98;;;8.90;99.90;;;;;;4128461;28;20493;-75
2021/10/30 02:23:19;;;;;;;61.33;32.95;;;9.00;99.90;;;;;;4128143;28;20505;-75
2021/10/30 02:25:23;;;;;;;62.25;32.97;;;9.00;99.90;;;;;;4121421;28;20122;-75
2021/10/30 02:27:24;;;;;;;57.65;32.40;;;9.10;99.90;;;;;;4138134;28;20088;-75
2021/10/30 02:29:25;;;;;;;65.88;35.17;;;9.20;99.90;;;;;;4121715;28;20099;-75
2021/10/30 02:31:25;;;;;;;63.20;33.70;;;9.10;99.90;;;;;;4123492;28;20386;-75
2021/10/30 02:33:26;;;;;;;57.95;31.58;;;9.10;99.90;;;;;;4120649;28;20159;-75
2021/10/30 02:35:27;;;;;;;60.13;32.58;;;9.10;99.90;;;;;;4125165;28;20038;-76
2021/10/30 02:37:28;;;;;;;56.20;30.45;;;9.10;99.90;;;;;;4128584;28;20040;-76
2021/10/30 02:39:28;;;;;;;58.30;31.02;;;9.10;99.90;;;;;;4128577;28;20170;-76
2021/10/30 02:41:29;;;;;;;54.53;29.27;;;9.10;99.90;;;;;;4128540;28;20483;-75
2021/10/30 02:43:30;;;;;;;52.15;29.58;;;9.10;99.90;;;;;;4129977;28;20120;-75
2021/10/30 02:45:30;;;;;;;54.25;28.33;;;9.00;99.90;;;;;;4115322;28;20134;-75
2021/10/30 02:47:32;;;;;;;50.88;28.45;;;9.00;99.90;;;;;;4127161;28;20065;-75
2021/10/30 02:49:33;;;;;;;56.58;30.02;;;9.00;99.90;;;;;;4127439;28;20483;-74
2021/10/30 02:51:33;;;;;;;51.38;27.80;;;8.90;99.90;;;;;;4127210;28;20030;-74
2021/10/30 02:53:34;;;;;;;48.58;25.25;;;8.90;99.90;;;;;;4129826;28;20053;-74
2021/10/30 02:55:35;;;;;;;52.55;26.50;;;8.80;99.90;;;;;;4127736;28;20185;-74
2021/10/30 02:57:35;;;;;;;50.47;25.25;;;8.80;99.90;;;;;;4125216;28;20112;-75
2021/10/30 02:59:36;;;;;;;57.20;29.52;;;8.80;99.90;;;;;;4126327;28;20097;-76
2021/10/30 03:01:36;;;;;;;57.78;27.30;;;8.80;99.90;;;;;;4128319;28;20552;-76
2021/10/30 03:03:37;;;;;;;54.00;27.70;;;8.70;99.90;;;;;;4127055;28;20077;-77
2021/10/30 03:05:38;;;;;;;52.28;27.15;;;8.80;99.90;;;;;;4126764;28;20414;-74
2021/10/30 03:07:39;;;;;;;53.75;27.00;;;8.80;99.90;;;;;;4126821;28;20176;-76
2021/10/30 03:09:39;;;;;;;53.50;29.33;;;8.80;99.90;;;;;;4129303;28;20462;-75
2021/10/30 03:11:40;;;;;;;51.38;27.20;;;8.80;99.90;;;;;;4126364;28;20032;-75
2021/10/30 03:13:41;;;;;;;57.63;28.48;;;8.80;99.90;;;;;;4129787;28;20065;-74
2021/10/30 03:15:42;;;;;;;48.92;27.45;;;8.70;99.90;;;;;;4127875;28;20030;-75
2021/10/30 03:17:42;;;;;;;55.15;28.35;;;8.70;99.90;;;;;;4122453;28;20065;-75
2021/10/30 03:19:43;;;;;;;50.67;27.15;;;8.70;99.90;;;;;;4132261;28;20038;-74
2021/10/30 03:21:43;;;;;;;48.90;25.02;;;8.60;99.90;;;;;;4132138;28;20026;-75
2021/10/30 03:23:44;;;;;;;50.13;26.50;;;8.60;99.90;;;;;;4130181;28;20503;-75
2021/10/30 03:25:45;;;;;;;55.40;28.67;;;8.60;99.90;;;;;;4131715;28;20364;-75
2021/10/30 03:27:45;;;;;;;56.08;28.80;;;8.70;99.90;;;;;;4131177;28;20470;-75
2021/10/30 03:29:46;;;;;;;61.67;28.60;;;8.80;99.90;;;;;;4131725;28;20038;-75
2021/10/30 03:31:47;;;;;;;60.03;29.80;;;8.80;99.90;;;;;;4123105;28;20030;-75
2021/10/30 03:33:48;;;;;;;57.90;28.10;;;8.90;99.90;;;;;;4128282;28;20034;-75
2021/10/30 03:35:49;;;;;;;58.45;28.58;;;8.90;99.90;;;;;;4129802;28;20077;-75
2021/10/30 03:37:49;;;;;;;58.40;26.33;;;8.90;99.90;;;;;;4132401;28;20038;-75
2021/10/30 03:39:50;;;;;;;59.72;27.38;;;9.00;99.90;;;;;;4127110;28;20034;-75
2021/10/30 03:41:51;;;;;;;54.78;29.45;;;9.00;99.90;;;;;;4131433;28;20039;-75
2021/10/30 03:43:51;;;;;;;55.35;27.38;;;9.00;99.90;;;;;;4130567;28;20453;-76
2021/10/30 03:45:52;;;;;;;56.30;29.90;;;9.10;99.90;;;;;;4146971;28;20112;-76
2021/10/30 03:47:53;;;;;;;60.17;31.15;;;9.10;99.90;;;;;;4130829;28;20098;-76
2021/10/30 03:49:54;;;;;;;64.78;31.33;;;9.20;99.90;;;;;;4144402;28;20369;-75
2021/10/30 03:51:54;;;;;;;56.92;29.77;;;9.20;99.90;;;;;;4130498;28;20121;-75
2021/10/30 03:53:55;;;;;;;64.57;31.52;;;9.30;99.90;;;;;;4132183;28;20121;-75
2021/10/30 03:55:56;;;;;;;60.20;31.58;;;9.40;99.90;;;;;;4124694;28;20141;-75
2021/10/30 03:57:56;;;;;;;67.88;33.53;;;9.50;99.90;;;;;;4131654;28;20433;-75
2021/10/30 03:59:58;;;;;;;61.88;32.05;;;9.50;99.90;;;;;;4132701;28;20042;-75
2021/10/30 04:01:59;;;;;;;56.72;30.15;;;9.60;99.90;;;;;;4129070;28;20200;-75
2021/10/30 04:03:59;;;;;;;65.20;30.63;;;9.60;99.90;;;;;;4131952;28;20031;-75
2021/10/30 04:06:00;;;;;;;55.97;28.45;;;9.70;99.90;;;;;;4128031;28;20033;-75
2021/10/30 04:08:01;;;;;;;58.53;29.40;;;9.70;99.90;;;;;;4119642;28;20046;-75
2021/10/30 04:10:02;;;;;;;60.30;31.70;;;9.80;99.90;;;;;;4129246;28;20409;-75
2021/10/30 04:12:03;;;;;;;54.20;29.25;;;9.90;99.90;;;;;;4128051;28;20066;-75
2021/10/30 04:14:04;;;;;;;65.32;31.48;;;10.00;99.90;;;;;;4131044;28;20413;-75
2021/10/30 04:16:05;;;;;;;47.08;28.90;;;10.10;99.90;;;;;;4131321;28;20027;-75
2021/10/30 04:18:05;;;;;;;57.72;31.27;;;10.30;99.90;;;;;;4126800;28;20105;-75
2021/10/30 04:20:07;;;;;;;51.17;29.73;;;10.30;99.90;;;;;;4124593;28;20065;-75
2021/10/30 04:22:08;;;;;;;51.28;29.02;;;10.40;99.90;;;;;;4126115;28;20031;-75
2021/10/30 04:24:09;;;;;;;46.05;28.63;;;10.50;99.90;;;;;;4123457;28;20031;-75
2021/10/30 04:26:10;;;;;;;48.22;28.95;;;10.50;99.90;;;;;;4125447;28;20027;-75
2021/10/30 04:28:10;;;;;;;51.13;29.13;;;10.60;99.90;;;;;;4132220;28;20259;-75
2021/10/30 04:30:11;;;;;;;52.30;31.20;;;10.60;99.90;;;;;;4121778;28;20070;-75
2021/10/30 04:32:14;;;;;;;49.50;28.50;;;10.60;99.90;;;;;;4123029;28;20492;-74
2021/10/30 04:34:23;;;;;;;47.88;28.65;;;10.60;99.90;;;;;;4130532;28;20026;-75
2021/10/30 04:36:25;;;;;;;44.25;28.17;;;10.60;99.90;;;;;;4130064;28;20027;-74
2021/10/30 04:38:25;;;;;;;46.25;27.75;;;10.70;99.90;;;;;;4130090;28;20027;-74
2021/10/30 04:40:26;;;;;;;43.22;26.73;;;10.70;99.90;;;;;;4130978;28;20121;-74
2021/10/30 04:42:27;;;;;;;48.65;30.13;;;10.70;99.90;;;;;;4125913;28;20030;-75
2021/10/30 04:44:27;;;;;;;44.72;25.33;;;10.70;99.90;;;;;;4129684;28;20031;-75
2021/10/30 04:46:28;;;;;;;49.80;26.13;;;10.70;99.90;;;;;;4130799;28;20029;-75
2021/10/30 04:48:29;;;;;;;42.72;25.70;;;10.80;99.90;;;;;;4128539;28;20034;-75
2021/10/30 04:50:29;;;;;;;44.42;25.85;;;10.80;99.90;;;;;;4131850;28;20046;-75
2021/10/30 04:52:31;;;;;;;43.42;25.95;;;10.80;99.90;;;;;;4127863;28;20038;-75
2021/10/30 04:54:32;;;;;;;45.50;26.17;;;10.80;99.90;;;;;;4126646;28;20390;-75
2021/10/30 04:56:32;;;;;;;44.22;26.58;;;10.90;99.90;;;;;;4129529;28;20030;-75
2021/10/30 04:58:34;;;;;;;40.90;24.88;;;10.90;99.90;;;;;;4129047;28;20035;-75
2021/10/30 05:00:34;;;;;;;46.28;26.40;;;10.90;99.90;;;;;;4126809;28;20035;-75
2021/10/30 05:02:35;;;;;;;45.40;25.20;;;10.90;99.90;;;;;;4133482;28;20080;-75
2021/10/30 05:04:36;;;;;;;49.85;25.92;;;10.90;99.90;;;;;;4128749;28;20038;-75
2021/10/30 05:06:37;;;;;;;43.92;25.83;;;10.90;99.90;;;;;;4127720;28;20100;-75
2021/10/30 05:08:38;;;;;;;45.92;26.63;;;10.90;99.90;;;;;;4131900;28;20034;-75
2021/10/30 05:10:39;;;;;;;39.85;26.25;;;10.90;99.90;;;;;;4129794;28;20026;-75
2021/10/30 05:12:39;;;;;;;44.60;26.77;;;10.90;99.90;;;;;;4124182;28;20597;-75
2021/10/30 05:14:40;;;;;;;48.47;27.30;;;10.90;99.90;;;;;;4128627;28;20069;-75
2021/10/30 05:16:41;;;;;;;45.40;26.40;;;10.90;99.90;;;;;;4128828;28;20042;-75
2021/10/30 05:18:41;;;;;;;52.42;27.63;;;10.90;99.90;;;;;;4129585;28;20030;-75
2021/10/30 05:20:42;;;;;;;46.72;26.80;;;10.90;99.90;;;;;;4130109;28;20088;-75
2021/10/30 05:22:43;;;;;;;49.85;27.40;;;10.90;99.90;;;;;;4130138;28;20034;-75
2021/10/30 05:24:44;;;;;;;45.10;26.70;;;10.80;99.90;;;;;;4121722;28;20030;-75
2021/10/30 05:26:44;;;;;;;52.53;28.25;;;10.90;99.90;;;;;;4139787;28;20148;-75
2021/10/30 05:28:45;;;;;;;47.83;26.85;;;10.90;99.90;;;;;;4128968;28;20104;-75
2021/10/30 05:30:45;;;;;;;45.70;27.05;;;10.80;99.90;;;;;;4129626;28;20129;-74
2021/10/30 05:32:46;;;;;;;44.90;26.30;;;10.80;99.90;;;;;;4125363;28;20030;-73
2021/10/30 05:34:47;;;;;;;50.00;25.90;;;10.80;99.90;;;;;;4129229;28;20043;-74
2021/10/30 05:36:47;;;;;;;50.88;28.40;;;10.80;99.90;;;;;;4129619;28;20532;-74
2021/10/30 05:38:51;;;;;;;48.75;28.10;;;10.80;99.90;;;;;;4128676;28;20042;-74
2021/10/30 05:40:52;;;;;;;49.97;28.48;;;10.80;99.90;;;;;;4129029;28;20062;-74
2021/10/30 05:42:53;;;;;;;43.53;26.52;;;10.80;99.90;;;;;;4127608;28;20030;-74
2021/10/30 05:44:53;;;;;;;48.10;25.23;;;10.80;99.90;;;;;;4130305;28;20056;-74
2021/10/30 05:46:54;;;;;;;45.72;26.85;;;10.70;99.90;;;;;;4128935;28;20690;-75
2021/10/30 05:48:55;;;;;;;45.42;26.15;;;10.70;99.90;;;;;;4129222;28;20486;-74
2021/10/30 05:50:55;;;;;;;46.15;26.05;;;10.70;99.90;;;;;;4128010;28;20059;-74
2021/10/30 05:52:56;;;;;;;40.20;25.10;;;10.70;99.90;;;;;;4124943;28;20042;-74
2021/10/30 05:54:56;;;;;;;46.83;24.88;;;10.70;99.90;;;;;;4130078;28;20045;-74
2021/10/30 05:56:57;;;;;;;40.90;24.05;;;10.70;99.90;;;;;;4130356;28;20061;-74
2021/10/30 05:58:58;;;;;;;42.28;26.17;;;10.70;99.90;;;;;;4127031;28;20049;-74
2021/10/30 06:00:59;;;;;;;44.55;24.80;;;10.70;99.90;;;;;;4119542;28;20105;-73
2021/10/30 06:02:59;;;;;;;38.63;23.70;;;10.70;99.90;;;;;;4124587;28;20031;-75
2021/10/30 06:05:00;;;;;;;40.03;23.55;;;10.70;99.90;;;;;;4115538;28;20031;-73
2021/10/30 06:07:01;;;;;;;45.72;26.02;;;10.70;99.90;;;;;;4122253;28;20063;-74
2021/10/30 06:09:02;;;;;;;40.45;25.25;;;10.70;99.90;;;;;;4116647;28;20403;-73
2021/10/30 06:11:03;;;;;;;39.17;23.83;;;10.70;99.90;;;;;;4122613;28;20089;-74
2021/10/30 06:13:03;;;;;;;42.40;24.70;;;10.70;99.90;;;;;;4116334;28;20038;-73
2021/10/30 06:15:08;;;;;;;46.75;25.30;;;10.70;99.90;;;;;;4120746;28;20039;-74
2021/10/30 06:17:09;;;;;;;44.92;24.77;;;10.70;99.90;;;;;;4134123;28;20034;-74
2021/10/30 06:19:10;;;;;;;42.45;23.13;;;10.70;99.90;;;;;;4121533;28;20546;-74
2021/10/30 06:21:10;;;;;;;44.15;24.33;;;10.70;99.90;;;;;;4134205;28;20366;-74
2021/10/30 06:23:13;;;;;;;45.65;24.85;;;10.80;99.90;;;;;;4116546;28;20102;-74
2021/10/30 06:25:14;;;;;;;37.53;22.67;;;10.80;99.90;;;;;;4120855;28;20026;-73
2021/10/30 06:27:15;;;;;;;39.70;23.52;;;10.80;99.90;;;;;;4121134;28;20026;-73
2021/10/30 06:29:16;;;;;;;47.38;24.52;;;10.80;99.90;;;;;;4120886;28;20089;-73
2021/10/30 06:31:17;;;;;;;44.85;24.10;;;10.70;99.90;;;;;;4118125;28;20514;-73
2021/10/30 06:33:17;;;;;;;42.53;23.42;;;10.70;99.90;;;;;;4126718;28;20041;-73
2021/10/30 06:35:19;;;;;;;48.08;26.73;;;10.70;99.90;;;;;;4114862;28;20101;-73
2021/10/30 06:37:20;;;;;;;44.83;25.65;;;10.70;99.90;;;;;;4120732;28;20101;-74
2021/10/30 06:39:21;;;;;;;42.70;25.10;;;10.80;99.90;;;;;;4119461;28;20035;-74
2021/10/30 06:41:21;;;;;;;51.70;26.90;;;10.80;99.90;;;;;;4125070;28;20057;-74
2021/10/30 06:43:22;;;;;;;50.42;26.25;;;10.80;99.90;;;;;;4116603;28;20216;-74
2021/10/30 06:45:23;;;;;;;51.40;27.48;;;10.80;99.90;;;;;;4121515;28;20045;-74
2021/10/30 06:47:23;;;;;;;47.72;27.42;;;10.80;99.90;;;;;;4118235;28;20023;-75
2021/10/30 06:49:25;;;;;;;52.25;26.42;;;10.80;99.90;;;;;;4123670;28;20058;-75
2021/10/30 06:51:26;;;;;;;55.40;27.63;;;10.80;99.90;;;;;;4122609;28;21396;-75
2021/10/30 06:53:26;;;;;;;56.42;28.13;;;10.80;99.90;;;;;;4125744;28;20117;-74
2021/10/30 06:55:27;;;;;;;58.55;28.00;;;10.80;99.90;;;;;;4120630;28;20058;-75
2021/10/30 06:57:29;;;;;;;57.05;28.70;;;10.80;99.90;;;;;;4124952;28;20435;-75
2021/10/30 06:59:30;;;;;;;68.55;29.27;;;10.80;99.90;;;;;;4130321;28;20060;-74
2021/10/30 07:01:33;;;;;;;70.13;30.02;;;10.80;99.90;;;;;;4131760;28;20045;-74
2021/10/30 07:03:36;;;;;;;59.05;29.52;;;10.80;99.90;;;;;;4131794;28;20045;-74
2021/10/30 07:05:39;;;;;;;61.53;30.52;;;10.90;99.90;;;;;;4130922;28;20084;-74
2021/10/30 07:07:39;;;;;;;68.47;31.35;;;10.90;99.90;;;;;;4131351;28;20430;-74
2021/10/30 07:09:40;;;;;;;71.80;31.77;;;10.80;99.90;;;;;;4130688;28;20051;-74
2021/10/30 07:11:44;;;;;;;68.95;30.77;;;10.80;99.90;;;;;;4131667;28;20120;-74
2021/10/30 07:13:44;;;;;;;73.53;34.20;;;10.80;99.90;;;;;;4130841;28;20071;-73
2021/10/30 07:15:46;;;;;;;66.72;31.20;;;10.90;99.90;;;;;;4129060;28;20125;-74
2021/10/30 07:17:47;;;;;;;72.95;32.55;;;10.90;99.90;;;;;;4129862;28;20038;-73
2021/10/30 07:19:48;;;;;;;58.63;29.98;;;10.80;99.90;;;;;;4127751;28;20067;-73
2021/10/30 07:21:48;;;;;;;79.85;40.55;;;10.90;99.90;;;;;;4121428;28;20125;-73
2021/10/30 07:23:49;;;;;;;75.47;35.25;;;10.90;99.90;;;;;;4125554;28;20100;-73
2021/10/30 07:25:50;;;;;;;75.90;33.72;;;10.90;99.90;;;;;;4130147;28;20084;-73
2021/10/30 07:27:52;;;;;;;75.85;37.15;;;10.90;99.90;;;;;;4130864;28;20126;-74
2021/10/30 07:29:53;;;;;;;70.30;34.15;;;11.00;99.90;;;;;;4128803;28;20030;-73
2021/10/30 07:31:54;;;;;;;81.13;45.35;;;11.00;99.90;;;;;;4129389;28;20390;-74
2021/10/30 07:33:54;;;;;;;72.07;35.58;;;11.00;99.90;;;;;;4121862;28;20047;-73
2021/10/30 07:35:55;;;;;;;89.95;48.40;;;11.00;99.90;;;;;;4123369;28;20039;-73
2021/10/30 07:38:00;;;;;;;81.22;37.05;;;11.00;99.90;;;;;;4131459;28;20063;-73
2021/10/30 07:40:01;;;;;;;68.95;35.50;;;11.00;99.90;;;;;;4130017;28;20498;-74
2021/10/30 07:42:03;;;;;;;74.07;36.28;;;10.90;99.90;;;;;;4126138;28;20037;-73
2021/10/30 07:44:04;;;;;;;67.13;33.90;;;11.00;99.90;;;;;;4131174;28;20038;-73
2021/10/30 07:46:04;;;;;;;79.78;39.05;;;11.00;99.90;;;;;;4128649;28;20049;-73
2021/10/30 07:48:05;;;;;;;68.47;33.88;;;11.00;99.90;;;;;;4127803;28;20146;-73
2021/10/30 07:50:06;;;;;;;79.80;40.83;;;11.00;99.90;;;;;;4131881;28;20038;-73
2021/10/30 07:52:09;;;;;;;65.07;33.53;;;11.00;99.90;;;;;;4126682;28;20030;-74
2021/10/30 07:54:09;;;;;;;72.70;36.83;;;11.00;99.90;;;;;;4132171;28;20494;-74
2021/10/30 07:56:10;;;;;;;65.20;32.35;;;11.00;99.90;;;;;;4129707;28;20034;-73
2021/10/30 07:58:11;;;;;;;71.47;32.70;;;11.00;99.90;;;;;;4131998;28;20034;-73
2021/10/30 08:00:12;;;;;;;62.35;32.03;;;11.00;99.90;;;;;;4129118;28;20068;-73
2021/10/30 08:02:13;;;;;;;64.53;30.08;;;11.00;99.90;;;;;;4130305;28;20043;-74
2021/10/30 08:04:14;;;;;;;64.38;32.72;;;11.00;99.90;;;;;;4128660;28;20030;-73
2021/10/30 08:06:14;;;;;;;59.28;29.42;;;11.00;99.90;;;;;;4120250;28;20466;-74
2021/10/30 08:08:15;;;;;;;56.80;30.13;;;11.00;99.90;;;;;;4128115;28;20073;-78
2021/10/30 08:10:16;;;;;;;133.02;74.93;;;11.10;99.90;;;;;;4128470;28;20366;-79
2021/10/30 08:12:17;;;;;;;59.78;30.60;;;11.10;99.90;;;;;;4129871;28;20037;-79
2021/10/30 08:14:19;;;;;;;55.47;26.70;;;11.10;99.90;;;;;;4130429;28;20075;-78
2021/10/30 08:16:19;;;;;;;55.13;27.38;;;11.10;99.90;;;;;;4129939;28;20065;-77
2021/10/30 08:18:20;;;;;;;58.55;28.90;;;11.20;99.90;;;;;;4123244;28;20045;-78
2021/10/30 08:20:20;;;;;;;74.05;38.60;;;11.20;99.90;;;;;;4124186;28;20026;-78
2021/10/30 08:22:21;;;;;;;51.47;27.83;;;11.20;99.90;;;;;;4117023;28;20041;-77
2021/10/30 08:24:22;;;;;;;56.33;29.38;;;11.20;99.90;;;;;;4122080;28;20130;-78
2021/10/30 08:26:22;;;;;;;56.45;28.63;;;11.20;99.90;;;;;;4116007;28;20039;-77
2021/10/30 08:28:23;;;;;;;56.17;32.30;;;11.20;99.90;;;;;;4127292;28;20109;-78
2021/10/30 08:30:25;;;;;;;56.28;27.30;;;11.30;99.90;;;;;;4139647;28;20466;-78
2021/10/30 08:32:26;;;;;;;49.33;26.42;;;11.30;99.90;;;;;;4129877;28;20031;-78
2021/10/30 08:34:28;;;;;;;56.70;26.52;;;11.30;99.90;;;;;;4130703;28;20062;-78
2021/10/30 08:36:29;;;;;;;52.57;27.73;;;11.30;99.90;;;;;;4130167;28;20490;-78
2021/10/30 08:38:29;;;;;;;39.28;23.98;;;11.30;99.90;;;;;;4129014;28;20034;-78
2021/10/30 08:40:30;;;;;;;41.47;24.17;;;11.40;99.90;;;;;;4130006;28;20030;-78
2021/10/30 08:42:33;;;;;;;43.45;25.58;;;11.30;99.90;;;;;;4126506;28;20050;-78
2021/10/30 08:44:37;;;;;;;39.80;23.70;;;11.40;99.90;;;;;;4126529;28;20063;-78
2021/10/30 08:46:38;;;;;;;46.47;24.85;;;11.40;99.90;;;;;;4129895;28;20031;-78
2021/10/30 08:48:39;;;;;;;50.00;27.02;;;11.40;99.90;;;;;;4127157;28;20034;-78
2021/10/30 08:50:40;;;;;;;45.00;23.30;;;11.40;99.90;;;;;;4128362;28;20030;-78
2021/10/30 08:52:40;;;;;;;53.50;27.27;;;11.50;99.90;;;;;;4127934;28;20084;-78
2021/10/30 08:54:41;;;;;;;37.17;22.27;;;11.40;99.90;;;;;;4127607;28;20488;-78
2021/10/30 08:56:43;;;;;;;38.60;21.95;;;11.50;99.90;;;;;;4128327;28;20033;-79
2021/10/30 08:58:43;;;;;;;34.35;21.85;;;11.50;99.90;;;;;;4127260;28;20145;-79
2021/10/30 09:00:47;;;;;;;35.05;20.33;;;11.50;99.90;;;;;;4132676;28;20381;-79
2021/10/30 09:03:03;;;;;;;36.80;20.90;;;11.40;99.90;;;;;;4129516;28;20038;-78
2021/10/30 09:05:16;;;;;;;38.65;21.92;;;11.50;99.90;;;;;;4129972;28;20030;-78
2021/10/30 09:07:20;;;;;;;;;;;11.40;99.90;;;;;;4129095;28;20034;-78
2021/10/30 09:09:20;;;;;;;39.33;20.63;;;11.40;99.90;;;;;;4126022;28;20044;-79
2021/10/30 09:11:26;;;;;;;39.78;21.20;;;11.40;99.90;;;;;;4128039;28;20083;-78
2021/10/30 09:13:29;;;;;;;36.30;20.23;;;11.50;99.90;;;;;;4114864;28;20128;-77
2021/10/30 09:15:42;;;;;;;35.85;20.88;;;11.50;99.90;;;;;;4112035;28;20035;-77
2021/10/30 09:17:42;;;;;;;34.20;19.35;;;11.50;99.90;;;;;;4115792;28;20027;-78
2021/10/30 09:19:45;;;;;;;35.90;20.10;;;11.50;99.90;;;;;;4121513;28;20102;-78
2021/10/30 09:22:02;;;;;;;32.47;19.83;;;11.50;99.90;;;;;;4131933;28;20101;-78
2021/10/30 09:24:12;;;;;;;34.83;19.10;;;11.50;99.90;;;;;;4118267;28;20031;-78
2021/10/30 09:26:21;;;;;;;33.95;18.48;;;11.50;99.90;;;;;;4123000;28;20125;-78
2021/10/30 09:28:23;;;;;;;31.60;18.20;;;11.60;99.90;;;;;;4118183;28;20046;-78
2021/10/30 09:30:25;;;;;;;32.90;19.73;;;11.60;99.90;;;;;;4122594;28;20633;-78
2021/10/30 09:32:26;;;;;;;30.73;19.00;;;11.60;99.90;;;;;;4130228;28;20066;-79
2021/10/30 09:34:27;;;;;;;38.85;19.98;;;11.70;99.90;;;;;;4129438;28;20034;-78
2021/10/30 09:36:33;;;;;;;28.60;18.15;;;11.70;99.90;;;;;;4129231;28;20521;-78
2021/10/30 09:38:37;;;;;;;30.73;17.23;;;11.70;99.90;;;;;;4123060;28;20046;-79
2021/10/30 09:40:41;;;;;;;31.33;18.58;;;11.70;99.90;;;;;;4130503;28;20454;-78
2021/10/30 09:42:41;;;;;;;32.20;19.80;;;11.70;99.90;;;;;;4129429;28;20042;-79
2021/10/30 09:44:42;;;;;;;32.85;21.42;;;11.80;99.90;;;;;;4129560;28;20153;-79
2021/10/30 09:46:45;;;;;;;29.90;19.70;;;11.80;99.90;;;;;;4128224;28;20076;-79
2021/10/30 09:48:46;;;;;;;28.52;16.65;;;11.80;99.90;;;;;;4128742;28;20031;-79
2021/10/30 09:50:48;;;;;;;29.65;18.27;;;11.80;99.90;;;;;;4127991;28;20129;-79
2021/10/30 09:52:50;;;;;;;26.13;16.85;;;11.80;99.90;;;;;;4128079;28;20035;-78
2021/10/30 09:54:51;;;;;;;33.30;21.17;;;11.90;99.90;;;;;;4125019;28;20042;-78
2021/10/30 09:56:52;;;;;;;30.83;18.85;;;11.90;99.90;;;;;;4129030;28;20273;-78
2021/10/30 09:58:53;;;;;;;31.65;20.33;;;11.90;99.90;;;;;;4145810;28;20030;-78
2021/10/30 10:00:56;;;;;;;31.05;19.70;;;12.00;99.90;;;;;;4129636;28;20054;-78
2021/10/30 10:03:03;;;;;;;25.45;16.17;;;12.00;99.90;;;;;;4128614;28;20099;-78
2021/10/30 10:05:04;;;;;;;31.15;18.35;;;12.10;99.90;;;;;;4137053;28;20081;-78
2021/10/30 10:07:11;;;;;;;30.27;16.83;;;12.10;99.90;;;;;;4128842;28;20069;-77
2021/10/30 10:09:14;;;;;;;27.35;15.80;;;12.10;99.90;;;;;;4128949;28;20058;-78
2021/10/30 10:11:16;;;;;;;26.85;16.02;;;12.10;99.90;;;;;;4127225;28;20035;-78
2021/10/30 10:13:18;;;;;;;26.77;16.42;;;12.10;99.90;;;;;;4126184;28;20042;-78
2021/10/30 10:15:22;;;;;;;24.77;14.70;;;12.20;99.90;;;;;;4127976;28;20581;-78
2021/10/30 10:17:23;;;;;;;22.15;15.07;;;12.20;99.90;;;;;;4128930;28;20030;-78
2021/10/30 10:19:23;;;;;;;34.33;17.98;;;12.20;99.90;;;;;;4126062;28;20073;-78